createdAt,value
2019-02-22T00:01:07.249Z,51.10
2019-02-22T00:04:09.009Z,51.20
2019-02-22T00:07:10.484Z,51.20
2019-02-22T00:10:12.023Z,51.20
2019-02-22T00:13:13.714Z,51.20
2019-02-22T00:16:15.120Z,51.30
2019-02-22T00:19:17.857Z,51.30
2019-02-22T00:22:19.309Z,51.30
2019-02-22T00:25:20.733Z,51.40
2019-02-22T00:28:22.236Z,51.40
2019-02-22T00:31:23.703Z,51.40
2019-02-22T00:34:25.247Z,51.40
2019-02-22T00:37:26.717Z,51.40
2019-02-22T00:40:28.096Z,51.60
2019-02-22T00:43:29.902Z,51.50
2019-02-22T00:46:31.599Z,51.50
2019-02-22T00:49:33.329Z,51.50
2019-02-22T00:52:34.763Z,51.50
2019-02-22T00:55:36.140Z,51.60
2019-02-22T00:58:37.571Z,51.60
2019-02-22T01:01:39.012Z,51.50
2019-02-22T01:04:40.384Z,51.60
2019-02-22T01:07:42.908Z,51.80
2019-02-22T01:10:44.297Z,51.80
2019-02-22T01:13:45.738Z,51.80
2019-02-22T01:16:47.125Z,51.80
2019-02-22T01:19:48.522Z,51.80
2019-02-22T01:22:50.045Z,51.80
2019-02-22T01:25:51.505Z,51.80
2019-02-22T01:28:53.294Z,51.90
2019-02-22T01:31:54.669Z,51.90
2019-02-22T01:34:56.143Z,51.90
2019-02-22T01:37:57.514Z,51.80
2019-02-22T01:40:58.964Z,51.90
2019-02-22T01:44:00.356Z,51.90
2019-02-22T01:47:01.747Z,51.90
2019-02-22T01:50:03.227Z,52.00
2019-02-22T01:53:05.402Z,52.00
2019-02-22T01:56:06.808Z,51.90
2019-02-22T01:59:08.356Z,52.00
2019-02-22T02:02:09.770Z,52.00
2019-02-22T02:05:11.209Z,52.20
2019-02-22T02:08:12.596Z,52.00
2019-02-22T02:11:13.957Z,52.00
2019-02-22T02:14:15.395Z,52.10
2019-02-22T02:17:17.814Z,52.10
2019-02-22T02:20:19.453Z,52.10
2019-02-22T02:23:21.907Z,52.40
2019-02-22T02:26:23.286Z,52.10
2019-02-22T02:29:24.683Z,52.20
2019-02-22T02:32:26.067Z,52.20
2019-02-22T02:35:27.476Z,52.20
2019-02-22T02:38:28.897Z,52.20
2019-02-22T02:41:30.275Z,52.20
2019-02-22T02:44:31.730Z,52.20
2019-02-22T02:47:33.100Z,52.30
2019-02-22T02:50:35.670Z,52.40
2019-02-22T02:53:37.877Z,52.30
2019-02-22T02:56:39.473Z,52.20
2019-02-22T02:59:41.359Z,52.30
2019-02-22T03:02:42.777Z,52.30
2019-02-22T03:06:12.423Z,52.40
2019-02-22T03:09:13.902Z,52.40
2019-02-22T03:12:15.370Z,52.50
2019-02-22T03:15:18.402Z,52.50
2019-02-22T03:18:19.949Z,52.50
2019-02-22T03:21:21.435Z,52.70
2019-02-22T03:24:22.840Z,52.50
2019-02-22T03:27:24.421Z,52.60
2019-02-22T03:30:25.962Z,52.60
2019-02-22T03:33:27.357Z,52.70
2019-02-22T03:36:28.834Z,52.60
2019-02-22T03:39:30.198Z,52.80
2019-02-22T03:42:31.574Z,52.70
2019-02-22T03:45:32.956Z,52.70
2019-02-22T03:48:34.326Z,52.80
2019-02-22T03:51:35.732Z,52.80
2019-02-22T03:54:37.125Z,52.80
2019-02-22T03:57:38.549Z,52.80
2019-02-22T04:00:39.995Z,52.90
2019-02-22T04:03:41.728Z,52.90
2019-02-22T04:06:43.635Z,52.90
2019-02-22T04:09:45.157Z,53.00
2019-02-22T04:12:46.840Z,52.90
2019-02-22T04:15:48.286Z,53.00
2019-02-22T04:18:49.610Z,53.10
2019-02-22T04:21:51.028Z,53.10
2019-02-22T04:24:52.556Z,53.10
2019-02-22T04:27:54.220Z,53.00
2019-02-22T04:30:55.724Z,53.00
2019-02-22T04:33:57.169Z,53.00
2019-02-22T04:36:58.594Z,53.10
2019-02-22T04:39:59.977Z,53.10
2019-02-22T04:43:01.371Z,53.10
2019-02-22T04:46:02.810Z,53.00
2019-02-22T04:49:04.284Z,53.00
2019-02-22T04:52:05.747Z,53.10
2019-02-22T04:55:07.159Z,53.10
2019-02-22T04:58:08.586Z,53.10
2019-02-22T05:01:10.032Z,53.10
2019-02-22T05:04:11.459Z,53.10
2019-02-22T05:07:12.988Z,53.20
2019-02-22T05:10:14.326Z,53.30
2019-02-22T05:13:15.796Z,53.30
2019-02-22T05:16:17.177Z,53.20
2019-02-22T05:19:18.554Z,53.20
2019-02-22T05:22:19.953Z,53.20
2019-02-22T05:25:21.357Z,53.30
2019-02-22T05:28:22.821Z,53.30
2019-02-22T05:31:24.223Z,53.30
2019-02-22T05:34:25.644Z,53.30
2019-02-22T05:37:27.073Z,53.20
2019-02-22T05:40:28.464Z,53.30
2019-02-22T05:43:29.881Z,53.30
2019-02-22T05:46:31.269Z,53.30
2019-02-22T05:49:32.705Z,53.30
2019-02-22T05:52:34.066Z,53.30
2019-02-22T05:55:35.483Z,53.40
2019-02-22T05:58:36.902Z,53.40
2019-02-22T06:01:38.288Z,53.40
2019-02-22T06:04:39.765Z,53.40
2019-02-22T06:07:41.158Z,53.40
2019-02-22T06:10:42.532Z,53.40
2019-02-22T06:13:43.936Z,53.40
2019-02-22T06:16:45.686Z,53.50
2019-02-22T06:19:47.298Z,53.40
2019-02-22T06:22:48.848Z,53.40
2019-02-22T06:25:50.294Z,53.50
2019-02-22T06:28:52.070Z,53.50
2019-02-22T06:31:54.026Z,53.60
2019-02-22T06:34:55.771Z,53.60
2019-02-22T06:37:57.195Z,53.50
2019-02-22T06:40:58.583Z,53.60
2019-02-22T06:43:59.968Z,53.50
2019-02-22T06:47:01.434Z,53.60
2019-02-22T06:50:02.818Z,53.60
2019-02-22T06:53:04.287Z,53.60
2019-02-22T06:56:05.693Z,53.60
2019-02-22T06:59:07.131Z,53.60
2019-02-22T07:02:08.587Z,53.60
2019-02-22T07:05:09.986Z,53.60
2019-02-22T07:08:11.392Z,53.60
2019-02-22T07:11:31.741Z,53.60
2019-02-22T07:14:33.187Z,53.70
2019-02-22T07:17:34.600Z,53.70
2019-02-22T07:20:37.042Z,53.70
2019-02-22T07:23:38.437Z,53.70
2019-02-22T07:26:39.863Z,53.70
2019-02-22T07:29:41.345Z,53.70
2019-02-22T07:32:42.859Z,53.80
2019-02-22T07:35:44.325Z,53.70
2019-02-22T07:38:45.916Z,53.70
2019-02-22T07:41:47.279Z,53.80
2019-02-22T07:44:48.703Z,53.80
2019-02-22T07:47:50.088Z,53.80
2019-02-22T07:50:57.967Z,53.80
2019-02-22T07:53:54.604Z,53.80
2019-02-22T07:56:56.017Z,53.90
2019-02-22T07:59:57.812Z,53.90
2019-02-22T08:02:59.884Z,53.90
2019-02-22T08:06:02.502Z,53.80
2019-02-22T08:09:05.385Z,53.90
2019-02-22T08:12:07.179Z,53.80
2019-02-22T08:15:10.089Z,53.90
2019-02-22T08:18:11.558Z,53.80
2019-02-22T08:21:13.991Z,54.00
2019-02-22T08:24:15.537Z,53.80
2019-02-22T08:27:16.979Z,53.90
2019-02-22T08:30:18.443Z,53.90
2019-02-22T08:33:19.854Z,53.90
2019-02-22T08:36:21.341Z,54.00
2019-02-22T08:39:22.887Z,54.00
2019-02-22T08:42:24.572Z,54.10
2019-02-22T08:45:26.063Z,54.10
2019-02-22T08:48:27.538Z,54.20
2019-02-22T08:51:28.941Z,54.10
2019-02-22T08:54:30.454Z,54.30
2019-02-22T08:57:31.961Z,54.30
2019-02-22T09:00:33.506Z,54.20
2019-02-22T09:03:35.119Z,54.10
2019-02-22T09:06:36.559Z,54.30
2019-02-22T09:09:38.177Z,54.30
2019-02-22T09:12:39.788Z,54.50
2019-02-22T09:15:41.219Z,54.40
2019-02-22T09:18:42.640Z,54.60
2019-02-22T09:21:44.175Z,54.50
2019-02-22T09:24:45.567Z,54.40
2019-02-22T09:27:46.988Z,54.70
2019-02-22T09:30:48.589Z,54.50
2019-02-22T09:33:50.000Z,54.40
2019-02-22T09:36:51.383Z,54.50
2019-02-22T09:39:52.811Z,54.50
2019-02-22T09:42:54.222Z,54.40
2019-02-22T09:45:55.628Z,54.50
2019-02-22T09:48:57.035Z,54.30
2019-02-22T09:51:58.492Z,54.40
2019-02-22T09:54:59.936Z,54.30
2019-02-22T09:58:01.324Z,54.10
2019-02-22T10:01:03.492Z,54.20
2019-02-22T10:04:05.241Z,53.80
2019-02-22T10:07:07.037Z,53.90
2019-02-22T10:10:10.589Z,53.90
2019-02-22T10:13:11.986Z,53.90
2019-02-22T10:16:13.436Z,53.90
2019-02-22T10:19:14.958Z,53.90
2019-02-22T10:22:17.348Z,53.90
2019-02-22T10:25:18.828Z,53.70
2019-02-22T10:28:20.245Z,53.60
2019-02-22T10:31:21.705Z,53.60
2019-02-22T10:34:23.151Z,53.50
2019-02-22T10:37:24.575Z,53.50
2019-02-22T10:40:25.951Z,53.20
2019-02-22T10:43:27.417Z,53.10
2019-02-22T10:46:28.803Z,53.20
2019-02-22T10:49:30.338Z,53.20
2019-02-22T10:52:32.112Z,53.20
2019-02-22T10:55:33.505Z,53.20
2019-02-22T10:58:35.007Z,53.40
2019-02-22T11:01:36.503Z,53.40
2019-02-22T11:04:37.940Z,53.80
2019-02-22T11:07:39.439Z,53.80
2019-02-22T11:10:40.851Z,53.50
2019-02-22T11:13:42.315Z,53.60
2019-02-22T11:16:43.752Z,53.60
2019-02-22T11:19:45.215Z,53.60
2019-02-22T11:22:46.647Z,53.50
2019-02-22T11:25:48.092Z,53.60
2019-02-22T11:28:49.475Z,53.50
2019-02-22T11:31:51.364Z,53.70
2019-02-22T11:34:52.849Z,53.70
2019-02-22T11:37:54.311Z,53.90
2019-02-22T11:40:55.781Z,53.70
2019-02-22T11:43:57.267Z,53.50
2019-02-22T11:46:59.238Z,53.40
2019-02-22T11:50:00.866Z,53.30
2019-02-22T11:53:04.041Z,53.30
2019-02-22T11:56:05.589Z,53.20
2019-02-22T11:59:07.214Z,52.90
2019-02-22T12:02:09.490Z,52.70
2019-02-22T12:05:11.102Z,52.70
2019-02-22T12:08:13.690Z,52.40
2019-02-22T12:11:15.432Z,52.40
2019-02-22T12:14:16.972Z,52.50
2019-02-22T12:17:18.440Z,52.20
2019-02-22T12:20:20.062Z,51.80
2019-02-22T12:23:21.618Z,51.90
2019-02-22T12:26:23.114Z,51.90
2019-02-22T12:29:24.922Z,51.70
2019-02-22T12:32:26.400Z,51.70
2019-02-22T12:35:28.027Z,51.80
2019-02-22T12:38:30.787Z,51.50
2019-02-22T12:41:32.592Z,50.70
2019-02-22T12:44:34.375Z,50.10
2019-02-22T12:47:37.477Z,49.80
2019-02-22T12:50:40.615Z,49.70
2019-02-22T12:53:42.185Z,49.50
2019-02-22T12:56:57.004Z,49.50
2019-02-22T12:59:49.400Z,49.30
2019-02-22T13:03:01.596Z,48.90
2019-02-22T13:05:54.562Z,48.80
2019-02-22T13:08:56.126Z,48.70
2019-02-22T13:11:57.596Z,48.40
2019-02-22T13:14:59.037Z,48.40
2019-02-22T13:18:02.960Z,48.40
2019-02-22T13:21:03.805Z,48.00
2019-02-22T13:24:05.354Z,47.90
2019-02-22T13:27:06.883Z,47.80
2019-02-22T13:30:10.980Z,47.60
2019-02-22T13:33:12.548Z,47.40
2019-02-22T13:36:14.799Z,47.20
2019-02-22T13:39:16.732Z,47.20
2019-02-22T13:42:18.312Z,47.20
2019-02-22T13:45:26.720Z,46.90
2019-02-22T13:48:23.209Z,46.70
2019-02-22T13:51:24.772Z,47.00
2019-02-22T13:54:26.270Z,46.90
2019-02-22T13:57:30.264Z,46.80
2019-02-22T14:00:31.048Z,46.60
2019-02-22T14:03:32.754Z,46.60
2019-02-22T14:06:34.221Z,46.70
2019-02-22T14:09:36.694Z,46.60
2019-02-22T14:12:38.154Z,46.60
2019-02-22T14:15:39.635Z,46.30
2019-02-22T14:18:41.098Z,46.30
2019-02-22T14:21:42.750Z,46.30
2019-02-22T14:24:44.166Z,46.20
2019-02-22T14:27:45.663Z,46.40
2019-02-22T14:30:47.123Z,47.00
2019-02-22T14:33:48.521Z,46.60
2019-02-22T14:36:50.783Z,46.80
2019-02-22T14:40:02.305Z,46.70
2019-02-22T14:42:55.462Z,46.50
2019-02-22T14:46:07.563Z,46.60
2019-02-22T14:49:27.544Z,46.60
2019-02-22T14:52:32.918Z,46.40
2019-02-22T14:55:35.078Z,46.30
2019-02-22T14:58:36.682Z,46.10
2019-02-22T15:01:38.278Z,46.10
2019-02-22T15:04:40.320Z,46.10
2019-02-22T15:07:41.929Z,46.00
2019-02-22T15:10:44.873Z,46.10
2019-02-22T15:13:46.543Z,45.90
2019-02-22T15:16:59.320Z,45.80
2019-02-22T15:20:00.944Z,45.80
2019-02-22T15:23:05.749Z,45.70
2019-02-22T15:26:07.602Z,45.70
2019-02-22T15:29:09.282Z,46.00
2019-02-22T15:32:12.567Z,46.10
2019-02-22T15:35:15.234Z,46.10
2019-02-22T15:38:19.982Z,46.10
2019-02-22T15:41:45.250Z,46.10
2019-02-22T15:44:48.378Z,46.10
2019-02-22T15:47:49.983Z,45.40
2019-02-22T15:50:51.883Z,45.30
2019-02-22T15:53:53.604Z,45.00
2019-02-22T15:56:56.782Z,44.80
2019-02-22T16:00:01.282Z,44.60
2019-02-22T16:03:13.292Z,44.90
2019-02-22T16:06:16.753Z,45.00
2019-02-22T16:09:18.396Z,45.20
2019-02-22T16:12:20.509Z,44.50
2019-02-22T16:15:22.267Z,45.30
2019-02-22T16:18:24.426Z,43.60
2019-02-22T16:21:26.651Z,43.90
2019-02-22T16:24:28.435Z,44.30
2019-02-22T16:27:30.545Z,43.00
2019-02-22T16:30:35.254Z,43.30
2019-02-22T16:33:37.175Z,43.60
2019-02-22T16:36:38.937Z,43.30
2019-02-22T16:39:41.083Z,43.00
2019-02-22T16:42:44.137Z,42.70
2019-02-22T16:45:47.161Z,43.00
2019-02-22T16:48:49.013Z,43.20
2019-02-22T16:51:51.971Z,43.30
2019-02-22T16:54:56.098Z,43.40
2019-02-22T16:58:04.129Z,43.60
2019-02-22T17:01:07.859Z,43.80
2019-02-22T17:04:12.013Z,43.80
2019-02-22T17:07:14.160Z,44.10
2019-02-22T17:10:19.312Z,44.20
2019-02-22T17:13:21.975Z,44.80
2019-02-22T17:16:25.310Z,44.80
2019-02-22T17:19:30.689Z,47.00
2019-02-22T17:22:32.699Z,47.70
2019-02-22T17:25:35.730Z,47.80
2019-02-22T17:28:38.856Z,48.30
2019-02-22T17:31:43.876Z,48.30
2019-02-22T17:34:46.644Z,47.50
2019-02-22T17:37:48.848Z,47.20
2019-02-22T17:40:51.042Z,47.20
2019-02-22T17:43:55.436Z,47.50
2019-02-22T17:46:57.988Z,47.50
2019-02-22T17:50:00.031Z,47.30
2019-02-22T17:53:03.889Z,47.40
2019-02-22T17:56:07.129Z,47.40
2019-02-22T17:59:09.022Z,47.40
2019-02-22T18:02:10.885Z,47.60
2019-02-22T18:05:13.003Z,47.50
2019-02-22T18:08:14.899Z,47.70
2019-02-22T18:11:20.463Z,47.70
2019-02-22T18:14:22.372Z,47.70
2019-02-22T18:17:32.398Z,47.60
2019-02-22T18:20:35.742Z,47.60
2019-02-22T18:23:36.853Z,47.60
2019-02-22T18:26:38.699Z,47.90
2019-02-22T18:29:40.169Z,47.80
2019-02-22T18:32:41.740Z,48.00
2019-02-22T18:35:43.691Z,48.30
2019-02-22T18:38:45.360Z,48.30
2019-02-22T18:41:47.326Z,48.60
2019-02-22T18:44:49.025Z,48.90
2019-02-22T18:47:50.444Z,49.00
2019-02-22T18:50:51.910Z,49.00
2019-02-22T18:53:54.450Z,49.30
2019-02-22T18:56:56.282Z,49.50
2019-02-22T18:59:57.838Z,49.60
2019-02-22T19:03:00.399Z,49.80
2019-02-22T19:06:01.993Z,49.70
2019-02-22T19:09:03.679Z,50.00
2019-02-22T19:12:07.061Z,50.00
2019-02-22T19:15:11.454Z,50.10
2019-02-22T19:18:12.995Z,50.20
2019-02-22T19:21:14.538Z,50.20
2019-02-22T19:24:16.056Z,50.30
2019-02-22T19:27:17.586Z,50.30
2019-02-22T19:30:20.098Z,50.40
2019-02-22T19:33:21.870Z,50.40
2019-02-22T19:36:23.437Z,50.40
2019-02-22T19:39:25.250Z,50.50
2019-02-22T19:42:27.038Z,50.50
2019-02-22T19:45:28.639Z,50.60
2019-02-22T19:48:30.366Z,50.60
2019-02-22T19:51:32.265Z,50.70
2019-02-22T19:54:33.832Z,50.60
2019-02-22T19:57:35.414Z,50.70
2019-02-22T20:00:36.996Z,50.80
2019-02-22T20:03:38.566Z,50.90
2019-02-22T20:06:40.144Z,50.90
2019-02-22T20:09:41.813Z,51.00
2019-02-22T20:12:43.606Z,51.00
2019-02-22T20:15:45.466Z,51.00
2019-02-22T20:18:47.031Z,51.00
2019-02-22T20:21:48.500Z,51.10
2019-02-22T20:24:50.234Z,51.10
2019-02-22T20:27:52.072Z,51.10
2019-02-22T20:30:53.560Z,51.10
2019-02-22T20:33:56.249Z,51.20
2019-02-22T20:36:57.787Z,51.30
2019-02-22T20:39:59.691Z,51.40
2019-02-22T20:43:01.237Z,51.30
2019-02-22T20:46:02.848Z,51.90
2019-02-22T20:49:04.411Z,51.40
2019-02-22T20:52:05.915Z,51.40
2019-02-22T20:55:08.810Z,51.40
2019-02-22T20:58:10.316Z,51.50
2019-02-22T21:01:14.774Z,51.50
2019-02-22T21:04:16.141Z,51.50
2019-02-22T21:07:17.679Z,51.50
2019-02-22T21:10:19.784Z,51.50
2019-02-22T21:13:21.375Z,51.50
2019-02-22T21:16:22.922Z,51.50
2019-02-22T21:19:24.636Z,51.60
2019-02-22T21:22:26.248Z,51.60
2019-02-22T21:25:27.748Z,51.60
2019-02-22T21:28:29.261Z,51.60
2019-02-22T21:31:30.814Z,51.60
2019-02-22T21:34:32.306Z,51.60
2019-02-22T21:37:33.807Z,51.70
2019-02-22T21:40:35.334Z,51.70
2019-02-22T21:43:37.350Z,51.70
2019-02-22T21:46:39.045Z,51.70
2019-02-22T21:49:40.808Z,51.70
2019-02-22T21:52:42.399Z,52.30
2019-02-22T21:55:43.908Z,51.70
2019-02-22T21:58:45.343Z,51.90
2019-02-22T22:01:46.851Z,51.80
2019-02-22T22:04:48.293Z,51.90
2019-02-22T22:07:49.778Z,51.80
2019-02-22T22:10:51.265Z,51.80
2019-02-22T22:13:53.034Z,51.90
2019-02-22T22:16:54.525Z,51.80
2019-02-22T22:19:55.977Z,51.80
2019-02-22T22:22:57.442Z,51.90
2019-02-22T22:25:58.969Z,52.00
2019-02-22T22:29:00.482Z,52.00
2019-02-22T22:32:01.928Z,52.00
2019-02-22T22:35:03.420Z,52.00
2019-02-22T22:38:04.919Z,52.00
2019-02-22T22:41:06.844Z,51.90
2019-02-22T22:44:08.512Z,51.90
2019-02-22T22:47:09.934Z,52.10
2019-02-22T22:50:12.829Z,51.90
2019-02-22T22:53:14.376Z,52.00
2019-02-22T22:56:15.818Z,52.00
2019-02-22T22:59:17.305Z,51.90
2019-02-22T23:02:18.916Z,52.00
2019-02-22T23:05:20.427Z,52.50
2019-02-22T23:08:21.912Z,52.00
2019-02-22T23:11:24.004Z,52.20
2019-02-22T23:14:25.576Z,51.90
2019-02-22T23:17:27.020Z,52.00
2019-02-22T23:20:28.516Z,52.10
2019-02-22T23:23:31.919Z,51.90
2019-02-22T23:26:33.612Z,52.00
2019-02-22T23:29:35.124Z,51.90
2019-02-22T23:32:36.602Z,52.20
2019-02-22T23:35:38.016Z,52.00
2019-02-22T23:38:39.459Z,52.00
2019-02-22T23:41:41.972Z,52.00
2019-02-22T23:44:43.399Z,52.10
2019-02-22T23:47:45.640Z,51.90
2019-02-22T23:50:47.336Z,52.00
2019-02-22T23:53:49.183Z,51.90
2019-02-22T23:56:50.718Z,51.90
2019-02-22T23:59:52.139Z,52.00
